3°C Temp
-6°C Dewpoint
% Humidity
Temperature
14 KM/H
9 MPH
8 KTS
190°
Due South

Wind Speed
Clear
Conditions
Pressure 1002.92 (hPa) - 29.62 (in)
Visibility 6.2 (mi) - 10.0 (km)

Current Conditions
EPKT
Location 6km (3.2mi)
Metar :EPKT 041330Z 19008KT CAVOK 03/M06 Q1003
Sat 4th December 14:30 pm

Airport
  Metar Aviation API Data Provided by https://www.checkwx.com/ CSS/SVG/PHP scripts by weather34.com © 2015-2021